Chicago, IL

11:18 PM CST on March 02, 2015 (GMT -0600)
West Loop - Old St. Pats | Change Station
CLOSE
Current Station
Personal Weather Station
Location: Chicago, IL
Elevation: 548 ft
Nearby Weather Stations
Active Advisory: Winter Weather Advisory

Elev 548 ft 41.88 °N, 87.64 °W | Updated 49 seconds ago

Overcast
Overcast
28.3 °F
Feels Like 28 °F
N
0.0
Wind Variable Wind from ESE
Gusts 5.0 mph

Today
High -- | Low -- °F
--% Chance of Precip.
Yesterday
High -- | Low -- °F
Precip. -- in
6:24 AM 5:41 PM
Waxing Gibbous, 94% visible
Pressure 30.32 in
Visibility 10.0 miles
Clouds Overcast 8500 ft
Windchill 28 °F
Dew Point 17 °F
Humidity 62%
Rainfall 0.00 in
Snow Depth Not available.
UV 0 out of 12
Pollen .50 out of 12
Air Quality Not available.
Flu Activity Not available.
METAR KMDW 030453Z 17006KT 10SM OVC085 M02/M10 A3027 RMK AO2 SLP266 T10221100

More Conditions Fewer Conditions

Pressure 30.32 in
Visibility 10.0 miles
Clouds Overcast 8500 ft
Windchill 28 °F
Dew Point 17 °F
Humidity 62%
Rainfall 0.00 in
Snow Depth Not available.
UV 0 out of 12
Pollen .50 out of 12
Air Quality Not available.
Flu Activity Not available.
METAR KMDW 030453Z 17006KT 10SM OVC085 M02/M10 A3027 RMK AO2 SLP266 T10221100

More Conditions Fewer Conditions

10-Day Weather Forecast

Almanac

Astronomy

Mar. 02, 2015 Rise Set
Actual Time
Civil Twilight
Nautical Twilight
Astronomical Twilight
Moon
Length of Visible Light
Length of Day
Tomorrow will be .
, % of the Moon is Illuminated

Today's Extremes

State Highs State Lows

Community

WunderPhotos

Upload Photos

1,802,066 photos uploaded!

WunderBlogs® & News

Nearby

Air Quality

  Air Quality AQ Index Pollutant
Not available.

Snow Depth

Station Depth Elevation

Earthquake Activity

City Distance Mag. Time & Date
Minimum magnitude displayed is 2.5.

Coastal Water Temperatures

Place Temperature

Nearby Weather Stations

Winter Weather Advisory
Statement as of 9:52 PM EST on March 02, 2015

... Winter Weather Advisory remains in effect from 3 am CST /4 am
EST/ to noon CST /1 PM EST/ Tuesday...

* timing... late tonight through Tuesday morning.

* Snow/ice accumulations... snow accumulations up to 2 inches in
the far north... around an inch in the Metro area... and much
lighter south. Sleet and or freezing rain accumulating to
around one tenth of an inch.

* Main impact... a period of heavy... wet snow and then a wintry
mix will create hazardous travel conditions during the Tuesday
morning commute.

Precautionary/preparedness actions...

A Winter Weather Advisory means that periods of snow... sleet... or
freezing rain will cause travel difficulties. Be prepared for
slippery roads and limited visibilities... and use caution while
driving.



Jee

Visit US at http://weather.Gov/Chicago (all lowercase)

Follow US on facebook... twitter... and youtube at:
www.Facebook.Com/nwschicago